Time;durP1;ratioP1;P1;durP2;ratioP2;P2;SDS_P1;SDS_P2;PMS_P1;PMS_P2;Temp;Humidity;BMP_temperature;BMP_pressure;BME280_temperature;BME280_humidity;BME280_pressure;Samples;Min_cycle;Max_cycle;Signal;HPM_P1;HPM_P2
2021/06/04 00:00:17;;;;;;;;;;;;;;;10.60;69.41;101425.86;104819;1090;78421;-65
2021/06/04 00:02:43;;;;;;;;;;;;;;;10.61;69.52;101422.97;104822;1088;79843;-67
2021/06/04 00:04:48;;;;;;;;;;;;;;;10.64;69.68;101433.45;104815;1090;77872;-66
2021/06/04 00:06:53;;;;;;;;;;;;;;;10.63;69.30;101436.30;104836;1089;77653;-66
2021/06/04 00:08:59;;;;;;;;;;;;;;;10.56;69.39;101433.44;104853;1090;77559;-69
2021/06/04 00:11:08;;;;;;;;;;;;;;;10.48;69.62;101430.70;104844;1090;77115;-59
2021/06/04 00:13:21;;;;;;;;;;;;;;;10.48;69.45;101422.60;104818;1090;77689;-59
2021/06/04 00:15:28;;;;;;;;;;;;;;;10.49;69.42;101424.27;104817;1089;78234;-60
2021/06/04 00:17:33;;;;;;;;;;;;;;;10.49;69.65;101426.16;104818;1090;77514;-67
2021/06/04 00:19:39;;;;;;;;;;;;;;;10.44;70.00;101423.92;104843;1089;76973;-60
2021/06/04 00:21:47;;;;;;;;;;;;;;;10.39;69.71;101423.58;104833;1090;78339;-60
2021/06/04 00:23:53;;;;;;;;;;;;;;;10.35;70.04;101432.17;104831;1090;78125;-60
2021/06/04 00:25:58;;;;;;;;;;;;;;;10.32;69.91;101422.55;104841;1090;76811;-68
2021/06/04 00:28:07;;;;;;;;;;;;;;;10.33;70.16;101423.40;104823;1088;77307;-68
2021/06/04 00:30:15;;;;;;;;;;;;;;;10.31;70.73;101423.54;104833;1090;77397;-60
2021/06/04 00:32:22;;;;;;;;;;;;;;;10.28;70.48;101423.86;104835;1090;77310;-60
2021/06/04 00:34:28;;;;;;;;;;;;;;;10.32;70.38;101425.25;104847;1090;77601;-60
2021/06/04 00:36:33;;;;;;;;;;;;;;;10.32;70.67;101422.55;104820;1090;78498;-66
2021/06/04 00:38:39;;;;;;;;;;;;;;;10.36;70.72;101418.49;104868;1090;77272;-66
2021/06/04 00:40:47;;;;;;;;;;;;;;;10.35;70.43;101422.22;104791;1090;77419;-59
2021/06/04 00:42:52;;;;;;;;;;;;;;;10.32;70.46;101427.09;104885;1090;77287;-59
2021/06/04 00:44:59;;;;;;;;;;;;;;;10.25;70.67;101416.08;104828;1090;77561;-59
2021/06/04 00:47:06;;;;;;;;;;;;;;;10.25;70.49;101416.08;104880;1090;77312;-59
2021/06/04 00:49:12;;;;;;;;;;;;;;;10.22;70.63;101416.41;104846;1090;77124;-59
2021/06/04 00:51:20;;;;;;;;;;;;;;;10.17;70.83;101426.00;104849;1090;78242;-66
2021/06/04 00:53:26;;;;;;;;;;;;;;;10.12;71.17;101425.61;104825;1090;78519;-66
2021/06/04 00:55:32;;;;;;;;;;;;;;;10.09;71.07;101422.23;104856;1089;76707;-66
2021/06/04 00:57:38;;;;;;;;;;;;;;;10.06;70.70;101417.16;104828;1090;78551;-59
2021/06/04 00:59:45;;;;;;;;;;;;;;;10.03;70.91;101425.57;104857;1090;77327;-59
2021/06/04 01:01:50;;;;;;;;;;;;;;;10.02;70.96;101425.75;104780;1088;78141;-66
2021/06/04 01:04:00;;;;;;;;;;;;;;;9.97;71.28;101415.41;104844;1090;77916;-66
2021/06/04 01:06:09;;;;;;;;;;;;;;;10.01;71.68;101418.64;104827;1090;77226;-60
2021/06/04 01:08:35;;;;;;;;;;;;;;;10.00;71.57;101422.34;104857;1090;77398;-60
2021/06/04 01:11:00;;;;;;;;;;;;;;;10.02;71.28;101418.50;104833;1089;77998;-60
2021/06/04 01:13:11;;;;;;;;;;;;;;;10.03;71.48;101422.88;104838;1090;77404;-59
2021/06/04 01:15:25;;;;;;;;;;;;;;;9.99;71.27;101410.72;104823;1090;77886;-60
2021/06/04 01:17:36;;;;;;;;;;;;;;;9.97;71.24;101417.29;104855;1090;77825;-65
2021/06/04 01:19:48;;;;;;;;;;;;;;;9.96;71.21;101416.44;104850;1090;77834;-65
2021/06/04 01:21:56;;;;;;;;;;;;;;;9.94;71.23;101414.91;104838;1090;78154;-65
2021/06/04 01:24:09;;;;;;;;;;;;;;;9.90;71.65;101411.67;104837;1090;76859;-65
2021/06/04 01:26:20;;;;;;;;;;;;;;;9.85;71.72;101411.31;104806;1090;77422;-60
2021/06/04 01:28:28;;;;;;;;;;;;;;;9.79;71.45;101419.19;104838;1090;78293;-59
2021/06/04 01:30:37;;;;;;;;;;;;;;;9.71;71.64;101411.89;104849;1090;77772;-59
2021/06/04 01:32:47;;;;;;;;;;;;;;;9.66;71.63;101408.83;104836;1090;77106;-64
2021/06/04 01:34:55;;;;;;;;;;;;;;;9.64;71.72;101412.70;104829;1088;77238;-65
2021/06/04 01:37:07;;;;;;;;;;;;;;;9.63;71.97;101419.94;104879;1090;77588;-58
2021/06/04 01:39:16;;;;;;;;;;;;;;;9.64;72.07;101418.09;104804;1090;77958;-58
2021/06/04 01:41:24;;;;;;;;;;;;;;;9.62;72.17;101420.08;104798;1089;78280;-64
2021/06/04 01:43:32;;;;;;;;;;;;;;;9.60;71.94;101412.16;104835;1090;78126;-65
2021/06/04 01:45:40;;;;;;;;;;;;;;;9.60;72.01;101414.86;104822;1088;77853;-65
2021/06/04 01:47:47;;;;;;;;;;;;;;;9.61;71.97;101415.70;104832;1090;78204;-65
2021/06/04 01:49:53;;;;;;;;;;;;;;;9.58;72.03;101422.27;104793;1089;77375;-64
2021/06/04 01:52:07;;;;;;;;;;;;;;;9.60;72.09;101424.80;104871;1090;78454;-60
2021/06/04 01:54:17;;;;;;;;;;;;;;;9.61;72.00;101421.10;104815;1090;79091;-59
2021/06/04 01:56:25;;;;;;;;;;;;;;;9.61;72.01;101413.86;104808;1090;77012;-59
2021/06/04 01:58:35;;;;;;;;;;;;;;;9.61;72.23;101419.26;104830;1089;76944;-60
2021/06/04 02:00:48;;;;;;;;;;;;;;;9.61;72.17;101415.70;104852;1089;78128;-59
2021/06/04 02:02:54;;;;;;;;;;;;;;;9.59;71.88;101426.64;104843;1090;78009;-67
2021/06/04 02:04:59;;;;;;;;;;;;;;;9.56;72.13;101413.46;104874;1090;77417;-66
2021/06/04 02:07:06;;;;;;;;;;;;;;;9.58;72.00;101416.88;104832;1090;76704;-66
2021/06/04 02:09:14;;;;;;;;;;;;;;;9.58;72.21;101421.41;104855;1090;78382;-66
2021/06/04 02:11:24;;;;;;;;;;;;;;;9.61;72.60;101415.70;104868;1090;77951;-59
2021/06/04 02:13:29;;;;;;;;;;;;;;;9.56;72.70;101418.04;104829;1090;77026;-59
2021/06/04 02:15:37;;;;;;;;;;;;;;;9.49;72.71;101425.90;104829;1090;76719;-60
2021/06/04 02:17:49;;;;;;;;;;;;;;;9.45;72.54;101422.66;104830;1090;78500;-60
2021/06/04 02:20:00;;;;;;;;;;;;;;;9.42;72.57;101427.55;104856;1089;76824;-60
2021/06/04 02:22:09;;;;;;;;;;;;;;;9.39;72.69;101417.89;104836;1090;77094;-68
2021/06/04 02:24:18;;;;;;;;;;;;;;;9.42;72.51;101430.24;104841;1093;77891;-67
2021/06/04 02:26:28;;;;;;;;;;;;;;;9.43;72.79;101421.13;104830;1090;77224;-66
2021/06/04 02:28:38;;;;;;;;;;;;;;;9.41;72.86;101415.05;104820;1090;77177;-65
2021/06/04 02:30:47;;;;;;;;;;;;;;;9.37;72.91;101416.36;104854;1090;77488;-67
2021/06/04 02:32:55;;;;;;;;;;;;;;;9.30;73.12;101412.60;104798;1090;76979;-60
2021/06/04 02:35:08;;;;;;;;;;;;;;;9.29;73.00;101410.90;104829;1090;78392;-59
2021/06/04 02:37:19;;;;;;;;;;;;;;;9.29;73.00;101410.90;104836;1093;77604;-60
2021/06/04 02:39:30;;;;;;;;;;;;;;;9.33;73.14;101420.38;104828;1090;76774;-60
2021/06/04 02:41:39;;;;;;;;;;;;;;;9.32;73.33;101418.68;104835;1090;77071;-66
2021/06/04 02:43:47;;;;;;;;;;;;;;;9.31;73.34;101408.92;104815;1090;78255;-66
2021/06/04 02:45:58;;;;;;;;;;;;;;;9.35;73.12;101412.98;104821;1089;78105;-63
2021/06/04 02:48:09;;;;;;;;;;;;;;;9.37;73.24;101414.52;104767;1090;76861;-65
2021/06/04 02:50:20;;;;;;;;;;;;;;;9.40;73.11;101419.59;104799;1090;78322;-65
2021/06/04 02:52:30;;;;;;;;;;;;;;;9.42;73.20;101414.06;104858;1089;76571;-60
2021/06/04 02:54:38;;;;;;;;;;;;;;;9.47;73.47;101409.89;104823;1090;78290;-60
2021/06/04 02:56:45;;;;;;;;;;;;;;;9.51;73.51;101413.09;104837;1090;76681;-60
2021/06/04 02:58:53;;;;;;;;;;;;;;;9.56;73.56;101407.25;104820;1090;78377;-60
2021/06/04 03:00:58;;;;;;;;;;;;;;;9.59;73.46;101418.55;104828;1090;77494;-60
2021/06/04 03:03:04;;;;;;;;;;;;;;;9.61;73.27;101419.26;104844;1090;76509;-60
2021/06/04 03:05:14;;;;;;;;;;;;;;;9.65;73.08;101415.22;104838;1090;77765;-60
2021/06/04 03:07:25;;;;;;;;;;;;;;;9.71;73.18;101419.98;104800;1090;78200;-65
2021/06/04 03:09:33;;;;;;;;;;;;;;;9.77;73.08;101415.81;104859;1090;77490;-65
2021/06/04 03:11:39;;;;;;;;;;;;;;;9.85;73.37;101416.70;104855;1090;77349;-65
2021/06/04 03:13:44;;;;;;;;;;;;;;;9.95;73.21;101413.88;104828;1089;79411;-65
2021/06/04 03:15:55;;;;;;;;;;;;;;;10.02;73.28;101415.80;104839;1089;76465;-63
2021/06/04 03:18:01;;;;;;;;;;;;;;;10.12;73.59;101421.06;104839;1093;77085;-65
2021/06/04 03:20:15;;;;;;;;;;;;;;;10.18;73.25;101415.05;104825;1090;76513;-65
2021/06/04 03:22:27;;;;;;;;;;;;;;;10.31;73.45;101418.14;104830;1090;76695;-65
2021/06/04 03:24:38;;;;;;;;;;;;;;;10.62;73.27;101421.98;104847;1090;77946;-66
2021/06/04 03:26:43;;;;;;;;;;;;;;;11.20;72.86;101426.47;104822;1089;78135;-66
2021/06/04 03:28:50;;;;;;;;;;;;;;;11.47;72.70;101422.56;104839;1090;77072;-66
2021/06/04 03:30:56;;;;;;;;;;;;;;;12.01;71.98;101415.55;104841;1090;78226;-65
2021/06/04 03:33:06;;;;;;;;;;;;;;;12.63;72.04;101428.19;104850;1088;77521;-65
2021/06/04 03:35:15;;;;;;;;;;;;;;;13.47;70.97;101417.27;104824;1090;77399;-66
2021/06/04 03:37:23;;;;;;;;;;;;;;;14.54;69.96;101418.65;104840;1090;77686;-60
2021/06/04 03:39:33;;;;;;;;;;;;;;;15.71;68.83;101419.03;104807;1090;77251;-60
2021/06/04 03:41:40;;;;;;;;;;;;;;;16.71;67.29;101416.70;104850;1090;76561;-61
2021/06/04 03:43:46;;;;;;;;;;;;;;;17.65;65.99;101409.33;104838;1089;78255;-59
2021/06/04 03:45:52;;;;;;;;;;;;;;;18.51;64.49;101413.59;104867;1090;78510;-64
2021/06/04 03:47:58;;;;;;;;;;;;;;;19.21;63.25;101414.47;104807;1089;78186;-67
2021/06/04 03:50:04;;;;;;;;;;;;;;;19.96;62.03;101413.45;104866;1090;77765;-66
2021/06/04 03:52:11;;;;;;;;;;;;;;;20.53;60.57;101410.31;104837;1093;77475;-65
2021/06/04 03:54:21;;;;;;;;;;;;;;;21.09;59.36;101412.77;104836;1090;77365;-66
2021/06/04 03:56:28;;;;;;;;;;;;;;;21.56;57.80;101421.94;104800;1090;77878;-65
2021/06/04 03:58:37;;;;;;;;;;;;;;;21.91;56.86;101413.77;104798;1090;78008;-65
2021/06/04 04:00:45;;;;;;;;;;;;;;;22.30;55.38;101417.70;104840;1090;77755;-65
2021/06/04 04:02:50;;;;;;;;;;;;;;;22.56;54.55;101419.06;104806;1090;77854;-60
2021/06/04 04:04:57;;;;;;;;;;;;;;;22.96;52.94;101413.59;104845;1090;76910;-60
2021/06/04 04:07:06;;;;;;;;;;;;;;;23.29;52.27;101413.66;104820;1088;77586;-60
2021/06/04 04:09:12;;;;;;;;;;;;;;;23.92;51.08;101414.22;104872;1090;77303;-59
2021/06/04 04:11:17;;;;;;;;;;;;;;;24.73;49.31;101412.58;104867;1090;77755;-66
2021/06/04 04:13:28;;;;;;;;;;;;;;;25.27;47.88;101407.13;104824;1090;77231;-67
2021/06/04 04:15:33;;;;;;;;;;;;;;;25.56;46.68;101405.75;104829;1090;77475;-68
2021/06/04 04:17:38;;;;;;;;;;;;;;;25.95;46.00;101407.17;104850;1090;78185;-67
2021/06/04 04:19:44;;;;;;;;;;;;;;;25.95;45.92;101407.17;104831;1090;77259;-69
2021/06/04 04:21:51;;;;;;;;;;;;;;;25.96;44.25;101403.28;104841;1089;77462;-68
2021/06/04 04:23:58;;;;;;;;;;;;;;;26.68;43.26;101400.66;104818;1090;78281;-68
2021/06/04 04:26:08;;;;;;;;;;;;;;;26.99;42.37;101396.08;104829;1089;77426;-66
2021/06/04 04:28:15;;;;;;;;;;;;;;;27.23;41.48;101400.00;104838;1090;77700;-66
2021/06/04 04:30:22;;;;;;;;;;;;;;;27.59;40.62;101400.05;104849;1090;77403;-66
2021/06/04 04:32:27;;;;;;;;;;;;;;;27.71;40.25;101400.61;104831;1090;77895;-66
2021/06/04 04:34:33;;;;;;;;;;;;;;;27.92;39.66;101400.31;104853;1090;76548;-66
2021/06/04 04:36:41;;;;;;;;;;;;;;;28.35;36.76;101395.25;104828;1090;77701;-59
2021/06/04 04:38:47;;;;;;;;;;;;;;;28.18;37.63;101389.17;104860;1090;76698;-59
2021/06/04 04:40:58;;;;;;;;;;;;;;;28.86;37.38;101384.75;104818;1093;77248;-62
2021/06/04 04:43:04;;;;;;;;;;;;;;;29.27;36.73;101391.74;104847;1090;76770;-59
2021/06/04 04:45:16;;;;;;;;;;;;;;;29.90;36.13;101389.00;104816;1090;77407;-60
2021/06/04 04:47:23;;;;;;;;;;;;;;;30.43;34.83;101384.27;104830;1090;78206;-67
2021/06/04 04:49:28;;;;;;;;;;;;;;;30.68;34.36;101386.73;104812;1090;77311;-67
2021/06/04 04:51:35;;;;;;;;;;;;;;;31.29;33.65;101384.73;104819;1090;78490;-59
2021/06/04 04:53:40;;;;;;;;;;;;;;;31.25;33.25;101386.48;104859;1090;77548;-59
2021/06/04 04:55:46;;;;;;;;;;;;;;;31.15;32.57;101388.61;104828;1088;77141;-59
2021/06/04 04:57:51;;;;;;;;;;;;;;;31.69;31.28;101393.60;104803;1090;77547;-59
2021/06/04 05:00:00;;;;;;;;;;;;;;;31.53;31.96;101382.67;104833;1090;78200;-59
2021/06/04 05:02:06;;;;;;;;;;;;;;;31.47;32.31;101388.67;104814;1090;77127;-60
2021/06/04 05:04:15;;;;;;;;;;;;;;;31.41;32.24;101385.10;104807;1090;77569;-59
2021/06/04 05:06:20;;;;;;;;;;;;;;;31.87;30.84;101387.95;104817;1088;77757;-67
2021/06/04 05:08:25;;;;;;;;;;;;;;;32.38;29.95;101387.01;104833;1090;77822;-66
2021/06/04 05:10:31;;;;;;;;;;;;;;;32.53;29.05;101384.75;104832;1090;77052;-66
2021/06/04 05:12:36;;;;;;;;;;;;;;;32.20;28.72;101377.56;104828;1089;77355;-67
2021/06/04 05:14:42;;;;;;;;;;;;;;;32.56;28.72;101386.92;104834;1090;76918;-66
2021/06/04 05:16:47;;;;;;;;;;;;;;;32.43;28.73;101376.55;104851;1090;78184;-66
2021/06/04 05:18:52;;;;;;;;;;;;;;;32.54;28.54;101380.82;104807;1090;78153;-66
2021/06/04 05:20:58;;;;;;;;;;;;;;;32.77;27.92;101384.53;104836;1090;78055;-67
2021/06/04 05:23:04;;;;;;;;;;;;;;;32.76;28.47;101382.86;104836;1089;79272;-66
2021/06/04 05:25:13;;;;;;;;;;;;;;;33.02;27.32;101369.92;104841;1090;78150;-66
2021/06/04 05:27:18;;;;;;;;;;;;;;;33.46;26.83;101373.95;104871;1090;78250;-59
2021/06/04 05:29:23;;;;;;;;;;;;;;;33.69;26.82;101375.61;104819;1090;78278;-59
2021/06/04 05:31:29;;;;;;;;;;;;;;;33.74;26.78;101370.70;104846;1093;76732;-58
2021/06/04 05:33:38;;;;;;;;;;;;;;;34.14;27.09;101377.22;104849;1090;77549;-58
2021/06/04 05:35:44;;;;;;;;;;;;;;;34.64;25.86;101377.72;104825;1089;77063;-59
2021/06/04 05:37:53;;;;;;;;;;;;;;;34.98;25.34;101374.98;104877;1090;77318;-67
2021/06/04 05:39:58;;;;;;;;;;;;;;;35.04;24.80;101372.00;104797;1089;78560;-67
2021/06/04 05:42:06;;;;;;;;;;;;;;;34.89;24.55;101379.75;104854;1090;77525;-59
2021/06/04 05:44:14;;;;;;;;;;;;;;;34.97;24.73;101370.51;104847;1093;76665;-59
2021/06/04 05:46:21;;;;;;;;;;;;;;;35.32;23.60;101378.98;104834;1090;77018;-59
2021/06/04 05:48:27;;;;;;;;;;;;;;;35.29;23.33;101376.83;104841;1089;77881;-59
2021/06/04 05:50:38;;;;;;;;;;;;;;;35.55;22.70;101374.04;104830;1089;78557;-59
2021/06/04 05:52:44;;;;;;;;;;;;;;;35.86;22.51;101374.61;104844;1090;77693;-67
2021/06/04 05:54:50;;;;;;;;;;;;;;;36.02;21.61;101370.11;104823;1090;77660;-67
2021/06/04 05:56:56;;;;;;;;;;;;;;;36.05;21.69;101377.88;104830;1090;78636;-59
2021/06/04 05:59:05;;;;;;;;;;;;;;;36.64;21.18;101381.61;104801;1089;78240;-59
2021/06/04 06:01:14;;;;;;;;;;;;;;;36.93;20.90;101375.09;104853;1090;77301;-59
2021/06/04 06:03:25;;;;;;;;;;;;;;;37.15;20.50;101380.42;104845;1090;77729;-59
2021/06/04 06:05:30;;;;;;;;;;;;;;;36.84;20.81;101377.17;104820;1090;78030;-59
2021/06/04 06:07:35;;;;;;;;;;;;;;;37.06;20.41;101383.31;104828;1090;76844;-59
2021/06/04 06:09:40;;;;;;;;;;;;;;;36.90;20.47;101379.43;104811;1090;78521;-59
2021/06/04 06:11:46;;;;;;;;;;;;;;;37.10;20.12;101384.28;104812;1090;78050;-59
2021/06/04 06:13:52;;;;;;;;;;;;;;;37.50;19.28;101375.31;104832;1093;76751;-59
2021/06/04 06:15:57;;;;;;;;;;;;;;;37.51;18.92;101376.98;104847;1090;78680;-66
2021/06/04 06:18:03;;;;;;;;;;;;;;;37.46;18.25;101375.20;104836;1089;78180;-67
2021/06/04 06:20:14;;;;;;;;;;;;;;;37.67;19.59;101378.80;104818;1090;78852;-68
2021/06/04 06:22:19;;;;;;;;;;;;;;;37.60;19.21;101384.19;104870;1090;77196;-59
2021/06/04 06:24:25;;;;;;;;;;;;;;;37.53;18.18;101380.27;104830;1090;78003;-59
2021/06/04 06:26:31;;;;;;;;;;;;;;;37.81;18.29;101376.48;104862;1090;77203;-67
2021/06/04 06:28:38;;;;;;;;;;;;;;;38.19;17.63;101378.22;104829;1090;78160;-68
2021/06/04 06:30:46;;;;;;;;;;;;;;;38.20;17.32;101385.52;104798;1090;77958;-67
2021/06/04 06:32:51;;;;;;;;;;;;;;;37.62;17.81;101384.66;104823;1090;77488;-59
2021/06/04 06:34:57;;;;;;;;;;;;;;;37.53;17.29;101383.09;104808;1090;77648;-59
2021/06/04 06:37:02;;;;;;;;;;;;;;;37.15;17.97;101386.89;104715;1092;77051;-60
2021/06/04 06:39:10;;;;;;;;;;;;;;;37.78;17.19;101380.00;104672;1091;78308;-59
2021/06/04 06:41:16;;;;;;;;;;;;;;;38.13;17.12;101385.29;104793;1090;77445;-60
2021/06/04 06:43:27;;;;;;;;;;;;;;;38.15;17.07;101388.58;104680;1090;76819;-61
2021/06/04 06:45:32;;;;;;;;;;;;;;;38.25;17.33;101383.28;104846;1090;77800;-61
2021/06/04 06:47:38;;;;;;;;;;;;;;;37.69;17.45;101384.91;104801;1090;76842;-61
2021/06/04 06:49:43;;;;;;;;;;;;;;;38.08;17.33;101382.67;104819;1089;78438;-66
2021/06/04 06:51:49;;;;;;;;;;;;;;;38.37;17.19;101382.51;104811;1090;77244;-59
2021/06/04 06:53:57;;;;;;;;;;;;;;;38.40;16.71;101381.80;104848;1090;76612;-59
2021/06/04 06:56:07;;;;;;;;;;;;;;;38.59;16.27;101381.20;104820;1088;77163;-59
2021/06/04 06:58:14;;;;;;;;;;;;;;;37.64;17.52;101385.13;104841;1088;76634;-59
2021/06/04 07:00:25;;;;;;;;;;;;;;;37.72;17.20;101384.22;104790;1090;77754;-59
2021/06/04 07:02:33;;;;;;;;;;;;;;;37.66;17.12;101393.27;104829;1090;78664;-64
2021/06/04 07:04:41;;;;;;;;;;;;;;;36.93;17.38;101392.83;104805;1090;77540;-64
2021/06/04 07:06:46;;;;;;;;;;;;;;;37.56;17.15;101380.41;104816;1088;76819;-64
2021/06/04 07:08:52;;;;;;;;;;;;;;;37.71;17.63;101391.05;104849;1090;76802;-66
2021/06/04 07:10:57;;;;;;;;;;;;;;;37.56;17.35;101388.87;104794;1090;77535;-59
2021/06/04 07:13:06;;;;;;;;;;;;;;;37.93;17.64;101392.66;104777;1090;77548;-58
2021/06/04 07:15:16;;;;;;;;;;;;;;;38.50;16.97;101388.97;104810;1090;76679;-66
2021/06/04 07:17:26;;;;;;;;;;;;;;;38.07;16.21;101392.33;106421;1090;77465;-65
2021/06/04 07:19:33;;;;;;;;;;;;;;;37.59;16.67;101399.45;104823;1090;77720;-65
2021/06/04 07:21:41;;;;;;;;;;;;;;;37.60;17.26;101395.48;104786;1090;77669;-62
2021/06/04 07:23:50;;;;;;;;;;;;;;;37.69;16.83;101398.21;104809;1090;76703;-61
2021/06/04 07:25:55;;;;;;;;;;;;;;;37.83;17.00;101395.88;104854;1090;77774;-58
2021/06/04 07:28:05;;;;;;;;;;;;;;;38.06;16.77;101399.14;104747;1090;77413;-58
2021/06/04 07:30:16;;;;;;;;;;;;;;;37.68;17.64;101405.02;104774;1090;78296;-59
2021/06/04 07:32:22;;;;;;;;;;;;;;;37.47;17.80;101409.88;104851;1090;78518;-58
2021/06/04 07:34:29;;;;;;;;;;;;;;;37.73;17.96;101402.80;104834;1090;78415;-58
2021/06/04 07:36:38;;;;;;;;;;;;;;;37.61;17.84;101401.91;104791;1090;77891;-62
2021/06/04 07:38:43;;;;;;;;;;;;;;;37.95;17.97;101401.59;104851;1089;76611;-58
2021/06/04 07:40:49;;;;;;;;;;;;;;;38.11;16.69;101404.55;104828;1090;76990;-60
2021/06/04 07:42:54;;;;;;;;;;;;;;;37.65;16.99;101402.88;104833;1089;77476;-61
2021/06/04 07:45:00;;;;;;;;;;;;;;;37.41;17.45;101409.23;104816;1090;76646;-61
2021/06/04 07:47:06;;;;;;;;;;;;;;;37.48;17.50;101409.52;104808;1089;78724;-57
2021/06/04 07:49:14;;;;;;;;;;;;;;;37.22;17.36;101408.91;104833;1090;78960;-57
2021/06/04 07:51:22;;;;;;;;;;;;;;;37.54;17.75;101408.14;104823;1090;77457;-60
2021/06/04 07:53:30;;;;;;;;;;;;;;;37.68;16.63;101403.02;104837;1090;77133;-60
2021/06/04 07:55:35;;;;;;;;;;;;;;;37.65;17.04;101403.72;104810;1090;77149;-60
2021/06/04 07:57:40;;;;;;;;;;;;;;;37.76;17.60;101402.11;104845;1090;78074;-57
2021/06/04 07:59:46;;;;;;;;;;;;;;;38.18;17.00;101396.34;104811;1090;77138;-57
2021/06/04 08:01:51;;;;;;;;;;;;;;;38.01;16.45;101394.55;104847;1090;76829;-60
2021/06/04 08:03:57;;;;;;;;;;;;;;;37.76;17.00;101402.11;104841;1090;78124;-60
2021/06/04 08:06:03;;;;;;;;;;;;;;;38.10;16.73;101395.25;104829;1090;78514;-58
2021/06/04 08:08:09;;;;;;;;;;;;;;;37.96;16.93;101394.79;104846;1089;78042;-58
2021/06/04 08:10:16;;;;;;;;;;;;;;;37.45;17.59;101386.81;104843;1090;77120;-58
2021/06/04 08:12:29;;;;;;;;;;;;;;;37.62;17.51;101386.66;104808;1089;78271;-58
2021/06/04 08:14:35;;;;;;;;;;;;;;;37.67;16.79;101390.08;104852;1090;77502;-58
2021/06/04 08:16:41;;;;;;;;;;;;;;;38.07;16.30;101393.16;104818;1089;77498;-60
2021/06/04 08:18:46;;;;;;;;;;;;;;;38.36;15.63;101390.15;104826;1090;77770;-60
2021/06/04 08:20:52;;;;;;;;;;;;;;;38.35;16.17;101387.66;104832;1090;78433;-58
2021/06/04 08:23:00;;;;;;;;;;;;;;;38.10;16.35;101385.98;104826;1090;77351;-60
2021/06/04 08:25:07;;;;;;;;;;;;;;;38.04;16.13;101387.38;104831;1090;77117;-61
2021/06/04 08:27:14;;;;;;;;;;;;;;;37.61;16.08;101384.99;104860;1090;77231;-57
2021/06/04 08:29:20;;;;;;;;;;;;;;;36.82;16.29;101385.95;104837;1089;77370;-58
2021/06/04 08:31:25;;;;;;;;;;;;;;;37.13;16.90;101375.14;104819;1090;77425;-58
2021/06/04 08:33:34;;;;;;;;;;;;;;;37.32;17.92;101371.83;104830;1090;77806;-58
2021/06/04 08:35:39;;;;;;;;;;;;;;;37.37;17.63;101365.14;104833;1092;77968;-58
2021/06/04 08:37:45;;;;;;;;;;;;;;;37.15;18.31;101372.80;104837;1090;77705;-60
2021/06/04 08:39:50;;;;;;;;;;;;;;;37.36;17.99;101363.51;104824;1090;78398;-60
2021/06/04 08:42:01;;;;;;;;;;;;;;;37.59;18.18;101370.42;104830;1090;77297;-58
2021/06/04 08:44:34;;;;;;;;;;;;;;;38.00;16.72;101370.31;104849;1090;77764;-58
2021/06/04 08:46:42;;;;;;;;;;;;;;;37.83;16.17;101364.04;104869;1090;78094;-57
2021/06/04 08:48:51;;;;;;;;;;;;;;;36.49;17.10;101366.12;104853;1090;78010;-58
2021/06/04 08:51:03;;;;;;;;;;;;;;;36.71;17.59;101361.34;104837;1090;76529;-59
2021/06/04 08:53:18;;;;;;;;;;;;;;;36.84;16.75;101360.27;104844;1090;77642;-58
2021/06/04 08:55:31;;;;;;;;;;;;;;;35.78;17.01;101355.77;104852;1090;77823;-58
2021/06/04 08:57:47;;;;;;;;;;;;;;;34.20;18.06;101356.27;104823;1090;76968;-58
2021/06/04 08:59:54;;;;;;;;;;;;;;;33.20;18.57;101351.34;104826;1089;78253;-57
2021/06/04 09:02:01;;;;;;;;;;;;;;;33.00;19.88;101349.81;104868;1090;78259;-57
2021/06/04 09:04:10;;;;;;;;;;;;;;;33.19;20.76;101358.08;104799;1090;79245;-57
2021/06/04 09:06:30;;;;;;;;;;;;;;;33.72;20.15;101350.58;104834;1090;78023;-61
2021/06/04 09:08:38;;;;;;;;;;;;;;;34.44;20.86;101355.86;104839;1090;77918;-60
2021/06/04 09:10:49;;;;;;;;;;;;;;;35.01;20.10;101348.20;104810;1090;78305;-61
2021/06/04 09:12:57;;;;;;;;;;;;;;;35.32;19.62;101353.69;104833;1089;78152;-61
2021/06/04 09:15:08;;;;;;;;;;;;;;;35.43;19.73;101355.83;104850;1090;78116;-61
2021/06/04 09:17:22;;;;;;;;;;;;;;;35.24;18.87;101351.72;104854;1090;76833;-57
2021/06/04 09:19:32;;;;;;;;;;;;;;;34.98;18.04;101348.86;104873;1090;78544;-57
2021/06/04 09:21:41;;;;;;;;;;;;;;;34.13;18.65;101353.11;104806;1089;77966;-57
2021/06/04 09:23:46;;;;;;;;;;;;;;;34.01;19.25;101347.23;104828;1090;76991;-57
2021/06/04 09:25:52;;;;;;;;;;;;;;;33.76;19.67;101345.16;104836;1090;77994;-59
2021/06/04 09:28:19;;;;;;;;;;;;;;;33.19;19.78;101347.70;104815;1090;78455;-57
2021/06/04 09:30:35;;;;;;;;;;;;;;;31.97;21.17;101348.64;104634;1090;78523;-57
2021/06/04 09:32:42;;;;;;;;;;;;;;;30.92;20.79;101349.30;105875;1088;77926;-57
2021/06/04 09:34:48;;;;;;;;;;;;;;;30.34;21.64;101347.80;104841;1090;77101;-57
2021/06/04 09:36:55;;;;;;;;;;;;;;;29.95;22.64;101349.92;104805;1090;77947;-57
2021/06/04 09:39:22;;;;;;;;;;;;;;;29.61;21.56;101341.63;104806;1090;77799;-57
2021/06/04 09:41:46;;;;;;;;;;;;;;;29.11;22.22;101342.84;104828;1093;77928;-57
2021/06/04 09:44:11;;;;;;;;;;;;;;;28.74;22.49;101342.52;104838;1090;76805;-57
2021/06/04 09:46:27;;;;;;;;;;;;;;;28.65;22.58;101343.13;104817;1093;78707;-58
2021/06/04 09:48:39;;;;;;;;;;;;;;;28.40;22.72;101329.34;104812;1090;78430;-58
2021/06/04 09:50:51;;;;;;;;;;;;;;;27.92;23.21;101338.36;104835;1090;77782;-57
2021/06/04 09:53:09;;;;;;;;;;;;;;;27.68;23.72;101334.52;104833;1090;78113;-57
2021/06/04 09:55:23;;;;;;;;;;;;;;;27.47;24.38;101333.70;104834;1093;77668;-57
2021/06/04 09:57:28;;;;;;;;;;;;;;;27.23;24.56;101336.17;104837;1093;78110;-57
2021/06/04 09:59:34;;;;;;;;;;;;;;;27.15;25.31;101333.95;104807;1089;78073;-57
2021/06/04 10:01:46;;;;;;;;;;;;;;;27.52;26.43;101340.08;104807;1089;77269;-57
2021/06/04 10:03:56;;;;;;;;;;;;;;;27.65;27.02;101344.25;104788;1089;77396;-59
2021/06/04 10:06:28;;;;;;;;;;;;;;;27.62;26.44;101335.63;104821;1090;78320;-60
2021/06/04 10:08:43;;;;;;;;;;;;;;;27.43;25.15;101333.45;104871;1089;76896;-58
2021/06/04 10:11:08;;;;;;;;;;;;;;;27.44;25.42;101337.05;104845;1090;77324;-58
2021/06/04 10:13:28;;;;;;;;;;;;;;;27.72;26.12;101343.94;104858;1090;77777;-58
2021/06/04 10:15:42;;;;;;;;;;;;;;;28.21;25.88;101331.06;104816;1090;78129;-58
2021/06/04 10:18:01;;;;;;;;;;;;;;;28.49;26.07;101327.61;104823;1089;77547;-57
2021/06/04 10:22:42;;;;;;;;;;;;;;;28.94;24.69;101334.06;104631;1093;64268;-58
2021/06/04 10:24:51;;;;;;;;;;;;;;;29.11;24.66;101334.50;104518;1093;76917;-58
2021/06/04 10:26:59;;;;;;;;;;;;;;;29.16;24.14;101320.54;104537;1093;77239;-58
2021/06/04 10:29:16;;;;;;;;;;;;;;;29.45;23.75;101326.16;104524;1097;77962;-59
2021/06/04 10:31:41;;;;;;;;;;;;;;;29.64;23.92;101316.78;104542;1096;77431;-56
2021/06/04 10:33:52;;;;;;;;;;;;;;;29.58;23.87;101320.77;104535;1093;79151;-57
2021/06/04 10:36:03;;;;;;;;;;;;;;;29.63;23.38;101320.70;104510;1092;78570;-57
2021/06/04 10:38:14;;;;;;;;;;;;;;;29.85;24.09;101317.45;104545;1093;76776;-58
2021/06/04 10:40:28;;;;;;;;;;;;;;;29.75;23.41;101314.72;104542;1093;77929;-59
2021/06/04 10:42:40;;;;;;;;;;;;;;;29.42;23.49;101307.28;104518;1093;77254;-60
2021/06/04 10:44:55;;;;;;;;;;;;;;;29.60;23.32;101309.31;104507;1093;77075;-58
2021/06/04 10:47:04;;;;;;;;;;;;;;;29.70;24.02;101310.04;104509;1093;77425;-66
2021/06/04 10:49:19;;;;;;;;;;;;;;;29.42;24.52;101319.22;104533;1093;76873;-66
2021/06/04 10:51:32;;;;;;;;;;;;;;;28.96;24.32;101304.83;104528;1093;78424;-57
2021/06/04 10:53:43;;;;;;;;;;;;;;;28.94;24.35;101311.80;104500;1093;77869;-61
2021/06/04 10:56:00;;;;;;;;;;;;;;;28.94;24.50;101307.07;104543;1093;77311;-58